sensor_id;sensor_type;location;lat;lon;timestamp;P1;durP1;ratioP1;P2;durP2;ratioP2
73428;SDS011;61643;49.564;17.412;2023-06-22T00:01:28;8.20;;;3.95;;
73428;SDS011;61643;49.564;17.412;2023-06-22T00:03:54;8.30;;;4.45;;
73428;SDS011;61643;49.564;17.412;2023-06-22T00:06:20;10.52;;;4.10;;
73428;SDS011;61643;49.564;17.412;2023-06-22T00:08:46;13.73;;;4.55;;
73428;SDS011;61643;49.564;17.412;2023-06-22T00:11:12;9.98;;;4.53;;
73428;SDS011;61643;49.564;17.412;2023-06-22T00:13:39;14.38;;;4.18;;
73428;SDS011;61643;49.564;17.412;2023-06-22T00:16:05;15.23;;;5.25;;
73428;SDS011;61643;49.564;17.412;2023-06-22T00:18:31;12.27;;;4.35;;
73428;SDS011;61643;49.564;17.412;2023-06-22T00:20:58;13.45;;;4.65;;
73428;SDS011;61643;49.564;17.412;2023-06-22T00:23:25;15.65;;;4.72;;
73428;SDS011;61643;49.564;17.412;2023-06-22T00:25:51;10.35;;;4.45;;
73428;SDS011;61643;49.564;17.412;2023-06-22T00:28:18;8.73;;;4.22;;
73428;SDS011;61643;49.564;17.412;2023-06-22T00:30:44;14.02;;;5.05;;
73428;SDS011;61643;49.564;17.412;2023-06-22T00:33:11;8.52;;;4.05;;
73428;SDS011;61643;49.564;17.412;2023-06-22T00:35:37;15.05;;;4.35;;
73428;SDS011;61643;49.564;17.412;2023-06-22T00:38:02;10.05;;;4.78;;
73428;SDS011;61643;49.564;17.412;2023-06-22T00:40:30;14.73;;;4.63;;
73428;SDS011;61643;49.564;17.412;2023-06-22T00:42:57;14.38;;;4.93;;
73428;SDS011;61643;49.564;17.412;2023-06-22T00:45:24;14.43;;;4.15;;
73428;SDS011;61643;49.564;17.412;2023-06-22T00:47:54;9.73;;;4.15;;
73428;SDS011;61643;49.564;17.412;2023-06-22T00:50:23;11.70;;;4.78;;
73428;SDS011;61643;49.564;17.412;2023-06-22T00:52:51;13.95;;;4.50;;
73428;SDS011;61643;49.564;17.412;2023-06-22T00:55:19;13.93;;;4.78;;
73428;SDS011;61643;49.564;17.412;2023-06-22T00:57:47;17.70;;;5.00;;
73428;SDS011;61643;49.564;17.412;2023-06-22T01:00:14;9.60;;;4.35;;
73428;SDS011;61643;49.564;17.412;2023-06-22T01:02:45;10.35;;;4.45;;
73428;SDS011;61643;49.564;17.412;2023-06-22T01:05:13;12.23;;;4.22;;
73428;SDS011;61643;49.564;17.412;2023-06-22T01:07:42;14.10;;;4.20;;
73428;SDS011;61643;49.564;17.412;2023-06-22T01:10:21;9.02;;;4.05;;
73428;SDS011;61643;49.564;17.412;2023-06-22T01:12:58;12.82;;;4.55;;
73428;SDS011;61643;49.564;17.412;2023-06-22T01:15:28;15.73;;;4.80;;
73428;SDS011;61643;49.564;17.412;2023-06-22T01:17:59;12.88;;;4.38;;
73428;SDS011;61643;49.564;17.412;2023-06-22T01:20:26;11.55;;;4.22;;
73428;SDS011;61643;49.564;17.412;2023-06-22T01:23:17;12.88;;;3.97;;
73428;SDS011;61643;49.564;17.412;2023-06-22T01:26:17;11.05;;;4.28;;
73428;SDS011;61643;49.564;17.412;2023-06-22T01:28:50;9.80;;;4.50;;
73428;SDS011;61643;49.564;17.412;2023-06-22T01:31:28;14.07;;;4.40;;
73428;SDS011;61643;49.564;17.412;2023-06-22T01:33:57;12.85;;;4.22;;
73428;SDS011;61643;49.564;17.412;2023-06-22T01:36:26;13.27;;;5.25;;
73428;SDS011;61643;49.564;17.412;2023-06-22T01:38:53;11.05;;;4.53;;
73428;SDS011;61643;49.564;17.412;2023-06-22T01:41:20;12.07;;;4.82;;
73428;SDS011;61643;49.564;17.412;2023-06-22T01:43:46;11.73;;;4.50;;
73428;SDS011;61643;49.564;17.412;2023-06-22T01:46:13;11.30;;;4.22;;
73428;SDS011;61643;49.564;17.412;2023-06-22T01:48:40;11.70;;;4.68;;
73428;SDS011;61643;49.564;17.412;2023-06-22T01:51:06;11.75;;;4.63;;
73428;SDS011;61643;49.564;17.412;2023-06-22T01:53:33;10.15;;;4.35;;
73428;SDS011;61643;49.564;17.412;2023-06-22T01:55:58;13.20;;;4.65;;
73428;SDS011;61643;49.564;17.412;2023-06-22T01:58:25;13.15;;;4.53;;
73428;SDS011;61643;49.564;17.412;2023-06-22T02:00:55;11.43;;;5.03;;
73428;SDS011;61643;49.564;17.412;2023-06-22T02:03:37;14.50;;;5.50;;
73428;SDS011;61643;49.564;17.412;2023-06-22T02:06:10;10.85;;;4.63;;
73428;SDS011;61643;49.564;17.412;2023-06-22T02:08:46;16.92;;;5.13;;
73428;SDS011;61643;49.564;17.412;2023-06-22T02:11:15;12.60;;;5.18;;
73428;SDS011;61643;49.564;17.412;2023-06-22T02:13:44;15.63;;;4.97;;
73428;SDS011;61643;49.564;17.412;2023-06-22T02:16:11;11.00;;;4.43;;
73428;SDS011;61643;49.564;17.412;2023-06-22T02:18:37;13.23;;;4.53;;
73428;SDS011;61643;49.564;17.412;2023-06-22T02:21:06;13.02;;;4.65;;
73428;SDS011;61643;49.564;17.412;2023-06-22T02:23:32;14.05;;;4.55;;
73428;SDS011;61643;49.564;17.412;2023-06-22T02:26:01;16.88;;;5.60;;
73428;SDS011;61643;49.564;17.412;2023-06-22T02:28:28;15.88;;;4.53;;
73428;SDS011;61643;49.564;17.412;2023-06-22T02:30:54;10.20;;;4.45;;
73428;SDS011;61643;49.564;17.412;2023-06-22T02:33:20;11.75;;;4.50;;
73428;SDS011;61643;49.564;17.412;2023-06-22T02:35:46;10.40;;;3.95;;
73428;SDS011;61643;49.564;17.412;2023-06-22T02:38:14;10.75;;;4.00;;
73428;SDS011;61643;49.564;17.412;2023-06-22T02:40:40;11.07;;;4.15;;
73428;SDS011;61643;49.564;17.412;2023-06-22T02:43:06;9.82;;;4.05;;
73428;SDS011;61643;49.564;17.412;2023-06-22T02:45:32;18.10;;;4.43;;
73428;SDS011;61643;49.564;17.412;2023-06-22T02:47:58;12.10;;;4.35;;
73428;SDS011;61643;49.564;17.412;2023-06-22T02:50:24;12.63;;;4.07;;
73428;SDS011;61643;49.564;17.412;2023-06-22T02:52:50;11.10;;;3.72;;
73428;SDS011;61643;49.564;17.412;2023-06-22T02:55:16;9.77;;;3.70;;
73428;SDS011;61643;49.564;17.412;2023-06-22T02:57:42;10.18;;;4.40;;
73428;SDS011;61643;49.564;17.412;2023-06-22T03:00:10;13.25;;;4.18;;
73428;SDS011;61643;49.564;17.412;2023-06-22T03:02:43;17.95;;;4.38;;
73428;SDS011;61643;49.564;17.412;2023-06-22T03:05:10;10.18;;;4.05;;
73428;SDS011;61643;49.564;17.412;2023-06-22T03:07:40;8.77;;;3.83;;
73428;SDS011;61643;49.564;17.412;2023-06-22T03:12:34;8.45;;;3.53;;
73428;SDS011;61643;49.564;17.412;2023-06-22T03:15:01;7.70;;;3.92;;
73428;SDS011;61643;49.564;17.412;2023-06-22T03:17:26;10.13;;;3.67;;
73428;SDS011;61643;49.564;17.412;2023-06-22T03:19:52;9.18;;;3.85;;
73428;SDS011;61643;49.564;17.412;2023-06-22T03:22:18;11.20;;;3.83;;
73428;SDS011;61643;49.564;17.412;2023-06-22T03:24:44;6.68;;;3.53;;
73428;SDS011;61643;49.564;17.412;2023-06-22T03:27:10;10.98;;;3.85;;
73428;SDS011;61643;49.564;17.412;2023-06-22T03:29:36;9.02;;;3.65;;
73428;SDS011;61643;49.564;17.412;2023-06-22T03:32:02;10.05;;;4.03;;
73428;SDS011;61643;49.564;17.412;2023-06-22T03:34:31;12.75;;;3.65;;
73428;SDS011;61643;49.564;17.412;2023-06-22T03:36:59;8.85;;;4.35;;
73428;SDS011;61643;49.564;17.412;2023-06-22T03:39:25;8.43;;;4.35;;
73428;SDS011;61643;49.564;17.412;2023-06-22T03:41:51;14.77;;;4.72;;
73428;SDS011;61643;49.564;17.412;2023-06-22T03:44:17;12.57;;;4.63;;
73428;SDS011;61643;49.564;17.412;2023-06-22T03:46:43;14.35;;;6.68;;
73428;SDS011;61643;49.564;17.412;2023-06-22T03:49:09;16.63;;;8.13;;
73428;SDS011;61643;49.564;17.412;2023-06-22T03:51:35;19.85;;;7.65;;
73428;SDS011;61643;49.564;17.412;2023-06-22T03:54:01;16.85;;;6.82;;
73428;SDS011;61643;49.564;17.412;2023-06-22T03:56:27;16.65;;;7.32;;
73428;SDS011;61643;49.564;17.412;2023-06-22T03:58:53;15.70;;;7.13;;
73428;SDS011;61643;49.564;17.412;2023-06-22T04:01:19;15.00;;;7.00;;
73428;SDS011;61643;49.564;17.412;2023-06-22T04:03:45;14.38;;;7.00;;
73428;SDS011;61643;49.564;17.412;2023-06-22T04:06:13;14.50;;;7.10;;
73428;SDS011;61643;49.564;17.412;2023-06-22T04:08:39;19.88;;;9.50;;
73428;SDS011;61643;49.564;17.412;2023-06-22T04:11:06;25.10;;;10.82;;
73428;SDS011;61643;49.564;17.412;2023-06-22T04:13:32;30.15;;;11.20;;
73428;SDS011;61643;49.564;17.412;2023-06-22T04:15:58;29.02;;;10.48;;
73428;SDS011;61643;49.564;17.412;2023-06-22T04:18:24;25.80;;;10.52;;
73428;SDS011;61643;49.564;17.412;2023-06-22T04:20:50;28.15;;;11.02;;
73428;SDS011;61643;49.564;17.412;2023-06-22T04:23:16;39.58;;;12.40;;
73428;SDS011;61643;49.564;17.412;2023-06-22T04:25:42;52.47;;;13.10;;
73428;SDS011;61643;49.564;17.412;2023-06-22T04:28:08;53.42;;;12.57;;
73428;SDS011;61643;49.564;17.412;2023-06-22T04:30:38;34.88;;;12.80;;
73428;SDS011;61643;49.564;17.412;2023-06-22T04:33:12;63.10;;;12.63;;
73428;SDS011;61643;49.564;17.412;2023-06-22T04:35:39;69.85;;;13.82;;
73428;SDS011;61643;49.564;17.412;2023-06-22T04:38:07;94.70;;;14.27;;
73428;SDS011;61643;49.564;17.412;2023-06-22T04:40:33;79.35;;;14.93;;
73428;SDS011;61643;49.564;17.412;2023-06-22T04:42:59;73.32;;;13.55;;
73428;SDS011;61643;49.564;17.412;2023-06-22T04:45:28;52.60;;;14.10;;
73428;SDS011;61643;49.564;17.412;2023-06-22T04:47:55;49.85;;;13.30;;
73428;SDS011;61643;49.564;17.412;2023-06-22T04:50:20;68.63;;;12.77;;
73428;SDS011;61643;49.564;17.412;2023-06-22T04:52:47;31.02;;;11.52;;
73428;SDS011;61643;49.564;17.412;2023-06-22T04:55:14;32.40;;;9.70;;
73428;SDS011;61643;49.564;17.412;2023-06-22T04:57:46;41.53;;;9.55;;
73428;SDS011;61643;49.564;17.412;2023-06-22T05:00:17;50.97;;;9.68;;
73428;SDS011;61643;49.564;17.412;2023-06-22T05:02:43;48.33;;;10.60;;
73428;SDS011;61643;49.564;17.412;2023-06-22T05:05:13;43.13;;;10.23;;
73428;SDS011;61643;49.564;17.412;2023-06-22T05:07:40;33.58;;;10.90;;
73428;SDS011;61643;49.564;17.412;2023-06-22T05:10:09;40.78;;;11.50;;
73428;SDS011;61643;49.564;17.412;2023-06-22T05:12:37;42.03;;;12.15;;
73428;SDS011;61643;49.564;17.412;2023-06-22T05:15:03;50.80;;;13.18;;
73428;SDS011;61643;49.564;17.412;2023-06-22T05:17:30;38.85;;;12.23;;
73428;SDS011;61643;49.564;17.412;2023-06-22T05:19:56;50.45;;;12.77;;
73428;SDS011;61643;49.564;17.412;2023-06-22T05:22:22;44.03;;;13.57;;
73428;SDS011;61643;49.564;17.412;2023-06-22T05:24:48;44.65;;;14.27;;
73428;SDS011;61643;49.564;17.412;2023-06-22T05:27:14;30.38;;;13.25;;
73428;SDS011;61643;49.564;17.412;2023-06-22T05:29:40;35.20;;;12.23;;
73428;SDS011;61643;49.564;17.412;2023-06-22T05:32:08;33.90;;;13.15;;
73428;SDS011;61643;49.564;17.412;2023-06-22T05:34:34;25.40;;;11.52;;
73428;SDS011;61643;49.564;17.412;2023-06-22T05:37:00;26.95;;;12.25;;
73428;SDS011;61643;49.564;17.412;2023-06-22T05:39:26;29.33;;;12.52;;
73428;SDS011;61643;49.564;17.412;2023-06-22T05:41:52;25.35;;;11.80;;
73428;SDS011;61643;49.564;17.412;2023-06-22T05:44:18;25.20;;;11.73;;
73428;SDS011;61643;49.564;17.412;2023-06-22T05:46:44;27.33;;;11.95;;
73428;SDS011;61643;49.564;17.412;2023-06-22T05:49:12;25.80;;;11.77;;
73428;SDS011;61643;49.564;17.412;2023-06-22T05:51:39;27.58;;;12.00;;
73428;SDS011;61643;49.564;17.412;2023-06-22T05:54:05;21.48;;;11.88;;
73428;SDS011;61643;49.564;17.412;2023-06-22T05:56:31;27.40;;;12.00;;
73428;SDS011;61643;49.564;17.412;2023-06-22T05:58:57;27.67;;;13.23;;
73428;SDS011;61643;49.564;17.412;2023-06-22T06:01:23;25.77;;;11.82;;
73428;SDS011;61643;49.564;17.412;2023-06-22T06:03:51;32.58;;;14.57;;
73428;SDS011;61643;49.564;17.412;2023-06-22T06:06:18;29.17;;;14.80;;
73428;SDS011;61643;49.564;17.412;2023-06-22T06:08:54;37.35;;;15.32;;
73428;SDS011;61643;49.564;17.412;2023-06-22T06:11:21;31.48;;;16.02;;
73428;SDS011;61643;49.564;17.412;2023-06-22T06:13:47;37.97;;;17.15;;
73428;SDS011;61643;49.564;17.412;2023-06-22T06:16:13;39.42;;;18.70;;
73428;SDS011;61643;49.564;17.412;2023-06-22T06:18:39;39.10;;;18.23;;
73428;SDS011;61643;49.564;17.412;2023-06-22T06:21:05;36.83;;;18.15;;
73428;SDS011;61643;49.564;17.412;2023-06-22T06:23:31;34.17;;;16.90;;
73428;SDS011;61643;49.564;17.412;2023-06-22T06:25:57;34.65;;;16.42;;
73428;SDS011;61643;49.564;17.412;2023-06-22T06:28:24;33.97;;;17.50;;
73428;SDS011;61643;49.564;17.412;2023-06-22T06:30:50;33.60;;;16.23;;
73428;SDS011;61643;49.564;17.412;2023-06-22T06:33:17;38.70;;;17.38;;
73428;SDS011;61643;49.564;17.412;2023-06-22T06:35:43;31.52;;;15.80;;
73428;SDS011;61643;49.564;17.412;2023-06-22T06:38:09;30.13;;;13.88;;
73428;SDS011;61643;49.564;17.412;2023-06-22T06:40:36;28.45;;;14.50;;
73428;SDS011;61643;49.564;17.412;2023-06-22T06:43:02;25.33;;;13.30;;
73428;SDS011;61643;49.564;17.412;2023-06-22T06:45:28;25.83;;;12.98;;
73428;SDS011;61643;49.564;17.412;2023-06-22T06:47:56;28.70;;;14.25;;
73428;SDS011;61643;49.564;17.412;2023-06-22T06:50:22;25.75;;;12.73;;
73428;SDS011;61643;49.564;17.412;2023-06-22T06:52:48;27.85;;;14.65;;
73428;SDS011;61643;49.564;17.412;2023-06-22T06:55:16;24.85;;;13.38;;
73428;SDS011;61643;49.564;17.412;2023-06-22T06:57:42;25.67;;;12.38;;
73428;SDS011;61643;49.564;17.412;2023-06-22T07:00:09;24.38;;;12.75;;
73428;SDS011;61643;49.564;17.412;2023-06-22T07:02:39;24.40;;;12.50;;
73428;SDS011;61643;49.564;17.412;2023-06-22T07:05:07;22.67;;;12.27;;
73428;SDS011;61643;49.564;17.412;2023-06-22T07:07:33;21.90;;;12.02;;
73428;SDS011;61643;49.564;17.412;2023-06-22T07:09:59;20.75;;;11.68;;
73428;SDS011;61643;49.564;17.412;2023-06-22T07:12:25;21.30;;;11.32;;
73428;SDS011;61643;49.564;17.412;2023-06-22T07:14:52;27.67;;;13.38;;
73428;SDS011;61643;49.564;17.412;2023-06-22T07:17:18;25.48;;;13.38;;
73428;SDS011;61643;49.564;17.412;2023-06-22T07:19:45;21.45;;;11.93;;
73428;SDS011;61643;49.564;17.412;2023-06-22T07:22:11;25.35;;;12.25;;
73428;SDS011;61643;49.564;17.412;2023-06-22T07:24:37;23.42;;;12.50;;
73428;SDS011;61643;49.564;17.412;2023-06-22T07:27:03;20.55;;;11.88;;
73428;SDS011;61643;49.564;17.412;2023-06-22T07:31:57;24.83;;;13.18;;
73428;SDS011;61643;49.564;17.412;2023-06-22T07:34:23;22.88;;;12.60;;
73428;SDS011;61643;49.564;17.412;2023-06-22T07:36:49;22.00;;;11.88;;
73428;SDS011;61643;49.564;17.412;2023-06-22T07:39:15;22.60;;;12.07;;
73428;SDS011;61643;49.564;17.412;2023-06-22T07:41:41;23.75;;;12.52;;
73428;SDS011;61643;49.564;17.412;2023-06-22T07:44:07;24.33;;;11.68;;
73428;SDS011;61643;49.564;17.412;2023-06-22T07:46:33;24.58;;;12.57;;
73428;SDS011;61643;49.564;17.412;2023-06-22T07:48:59;28.40;;;13.25;;
73428;SDS011;61643;49.564;17.412;2023-06-22T07:51:27;26.02;;;12.98;;
73428;SDS011;61643;49.564;17.412;2023-06-22T07:53:53;21.55;;;12.43;;
73428;SDS011;61643;49.564;17.412;2023-06-22T07:56:20;20.15;;;12.18;;
73428;SDS011;61643;49.564;17.412;2023-06-22T07:58:46;24.70;;;13.38;;
73428;SDS011;61643;49.564;17.412;2023-06-22T08:01:16;23.02;;;13.60;;
73428;SDS011;61643;49.564;17.412;2023-06-22T08:03:42;27.00;;;13.23;;
73428;SDS011;61643;49.564;17.412;2023-06-22T08:06:08;22.63;;;13.55;;
73428;SDS011;61643;49.564;17.412;2023-06-22T08:08:35;24.25;;;13.50;;
73428;SDS011;61643;49.564;17.412;2023-06-22T08:11:02;25.23;;;12.70;;
73428;SDS011;61643;49.564;17.412;2023-06-22T08:13:28;21.42;;;12.10;;
73428;SDS011;61643;49.564;17.412;2023-06-22T08:15:54;22.90;;;12.77;;
73428;SDS011;61643;49.564;17.412;2023-06-22T08:18:20;21.13;;;11.90;;
73428;SDS011;61643;49.564;17.412;2023-06-22T08:20:46;23.63;;;13.13;;
73428;SDS011;61643;49.564;17.412;2023-06-22T08:23:12;21.75;;;12.00;;
73428;SDS011;61643;49.564;17.412;2023-06-22T08:25:38;21.75;;;11.65;;
73428;SDS011;61643;49.564;17.412;2023-06-22T08:28:04;24.85;;;12.65;;
73428;SDS011;61643;49.564;17.412;2023-06-22T08:30:31;20.65;;;12.20;;
73428;SDS011;61643;49.564;17.412;2023-06-22T08:32:57;22.20;;;12.38;;
73428;SDS011;61643;49.564;17.412;2023-06-22T08:35:23;21.80;;;12.73;;
73428;SDS011;61643;49.564;17.412;2023-06-22T08:37:49;22.85;;;12.75;;
73428;SDS011;61643;49.564;17.412;2023-06-22T08:40:18;19.85;;;11.35;;
73428;SDS011;61643;49.564;17.412;2023-06-22T08:42:45;23.83;;;12.48;;
73428;SDS011;61643;49.564;17.412;2023-06-22T08:45:13;21.33;;;12.27;;
73428;SDS011;61643;49.564;17.412;2023-06-22T08:47:40;22.98;;;11.52;;
73428;SDS011;61643;49.564;17.412;2023-06-22T08:50:07;20.55;;;11.80;;
73428;SDS011;61643;49.564;17.412;2023-06-22T08:55:00;23.85;;;12.75;;
73428;SDS011;61643;49.564;17.412;2023-06-22T08:57:26;17.92;;;12.23;;
73428;SDS011;61643;49.564;17.412;2023-06-22T08:59:53;23.38;;;12.52;;
73428;SDS011;61643;49.564;17.412;2023-06-22T09:02:26;18.95;;;12.10;;
73428;SDS011;61643;49.564;17.412;2023-06-22T09:04:58;20.88;;;12.18;;
73428;SDS011;61643;49.564;17.412;2023-06-22T09:07:24;18.58;;;12.32;;
73428;SDS011;61643;49.564;17.412;2023-06-22T09:09:51;18.38;;;12.43;;
73428;SDS011;61643;49.564;17.412;2023-06-22T09:12:17;20.90;;;12.10;;
73428;SDS011;61643;49.564;17.412;2023-06-22T09:14:45;19.73;;;12.07;;
73428;SDS011;61643;49.564;17.412;2023-06-22T09:17:12;17.83;;;11.25;;
73428;SDS011;61643;49.564;17.412;2023-06-22T09:19:38;21.17;;;12.98;;
73428;SDS011;61643;49.564;17.412;2023-06-22T09:22:04;17.30;;;12.32;;
73428;SDS011;61643;49.564;17.412;2023-06-22T09:24:32;19.02;;;11.13;;
73428;SDS011;61643;49.564;17.412;2023-06-22T09:26:58;12.48;;;9.75;;
73428;SDS011;61643;49.564;17.412;2023-06-22T09:29:24;12.32;;;10.07;;
73428;SDS011;61643;49.564;17.412;2023-06-22T09:31:50;13.50;;;10.45;;
73428;SDS011;61643;49.564;17.412;2023-06-22T09:34:19;12.77;;;10.05;;
73428;SDS011;61643;49.564;17.412;2023-06-22T09:36:46;12.82;;;9.98;;
73428;SDS011;61643;49.564;17.412;2023-06-22T09:39:12;13.15;;;9.82;;
73428;SDS011;61643;49.564;17.412;2023-06-22T09:41:38;15.57;;;10.07;;
73428;SDS011;61643;49.564;17.412;2023-06-22T09:44:04;13.68;;;10.13;;
73428;SDS011;61643;49.564;17.412;2023-06-22T09:46:30;13.52;;;10.65;;
73428;SDS011;61643;49.564;17.412;2023-06-22T09:48:56;15.57;;;10.45;;
73428;SDS011;61643;49.564;17.412;2023-06-22T09:51:22;12.82;;;10.65;;
73428;SDS011;61643;49.564;17.412;2023-06-22T09:53:49;13.95;;;10.63;;
73428;SDS011;61643;49.564;17.412;2023-06-22T09:56:16;11.40;;;10.18;;
73428;SDS011;61643;49.564;17.412;2023-06-22T09:58:43;13.60;;;10.30;;
73428;SDS011;61643;49.564;17.412;2023-06-22T10:01:10;12.18;;;9.65;;
73428;SDS011;61643;49.564;17.412;2023-06-22T10:03:36;14.85;;;10.27;;
73428;SDS011;61643;49.564;17.412;2023-06-22T10:06:03;12.45;;;10.52;;
73428;SDS011;61643;49.564;17.412;2023-06-22T10:08:29;15.82;;;10.73;;
73428;SDS011;61643;49.564;17.412;2023-06-22T10:10:55;11.98;;;10.27;;
73428;SDS011;61643;49.564;17.412;2023-06-22T10:13:21;13.18;;;10.75;;
73428;SDS011;61643;49.564;17.412;2023-06-22T10:15:47;16.85;;;10.32;;
73428;SDS011;61643;49.564;17.412;2023-06-22T10:18:16;14.40;;;11.30;;
73428;SDS011;61643;49.564;17.412;2023-06-22T10:20:43;12.38;;;10.52;;
73428;SDS011;61643;49.564;17.412;2023-06-22T10:23:10;12.95;;;10.38;;
73428;SDS011;61643;49.564;17.412;2023-06-22T10:25:36;14.05;;;10.55;;
73428;SDS011;61643;49.564;17.412;2023-06-22T10:28:02;12.95;;;10.50;;
73428;SDS011;61643;49.564;17.412;2023-06-22T10:30:28;13.48;;;10.98;;
73428;SDS011;61643;49.564;17.412;2023-06-22T10:32:54;13.45;;;10.98;;
73428;SDS011;61643;49.564;17.412;2023-06-22T10:35:20;14.27;;;10.60;;
73428;SDS011;61643;49.564;17.412;2023-06-22T10:37:46;12.95;;;10.73;;
73428;SDS011;61643;49.564;17.412;2023-06-22T10:40:13;15.30;;;11.57;;
73428;SDS011;61643;49.564;17.412;2023-06-22T10:45:06;11.95;;;9.82;;
73428;SDS011;61643;49.564;17.412;2023-06-22T10:47:33;13.75;;;11.20;;
73428;SDS011;61643;49.564;17.412;2023-06-22T10:50:00;13.27;;;10.10;;
73428;SDS011;61643;49.564;17.412;2023-06-22T10:52:26;12.15;;;10.05;;
73428;SDS011;61643;49.564;17.412;2023-06-22T10:54:52;13.50;;;10.85;;
73428;SDS011;61643;49.564;17.412;2023-06-22T10:57:18;13.52;;;11.10;;
73428;SDS011;61643;49.564;17.412;2023-06-22T10:59:44;14.77;;;10.65;;
73428;SDS011;61643;49.564;17.412;2023-06-22T11:02:10;13.73;;;11.23;;
73428;SDS011;61643;49.564;17.412;2023-06-22T11:04:36;13.63;;;11.25;;
73428;SDS011;61643;49.564;17.412;2023-06-22T11:07:02;12.15;;;10.75;;
73428;SDS011;61643;49.564;17.412;2023-06-22T11:09:28;11.52;;;10.02;;
73428;SDS011;61643;49.564;17.412;2023-06-22T11:11:55;11.88;;;9.63;;
73428;SDS011;61643;49.564;17.412;2023-06-22T11:14:21;13.32;;;10.43;;
73428;SDS011;61643;49.564;17.412;2023-06-22T11:16:47;13.32;;;10.35;;
73428;SDS011;61643;49.564;17.412;2023-06-22T11:19:13;14.98;;;10.38;;
73428;SDS011;61643;49.564;17.412;2023-06-22T11:21:40;12.20;;;9.77;;
73428;SDS011;61643;49.564;17.412;2023-06-22T11:24:06;11.35;;;9.93;;
73428;SDS011;61643;49.564;17.412;2023-06-22T11:26:32;15.90;;;10.27;;
73428;SDS011;61643;49.564;17.412;2023-06-22T11:28:58;14.32;;;10.40;;
73428;SDS011;61643;49.564;17.412;2023-06-22T11:31:24;12.15;;;9.43;;
73428;SDS011;61643;49.564;17.412;2023-06-22T11:33:51;13.10;;;9.90;;
73428;SDS011;61643;49.564;17.412;2023-06-22T11:36:17;11.80;;;10.05;;
73428;SDS011;61643;49.564;17.412;2023-06-22T11:38:43;11.55;;;9.13;;
73428;SDS011;61643;49.564;17.412;2023-06-22T11:41:09;11.85;;;9.20;;
73428;SDS011;61643;49.564;17.412;2023-06-22T11:43:35;13.40;;;10.00;;
73428;SDS011;61643;49.564;17.412;2023-06-22T11:46:03;11.10;;;9.48;;
73428;SDS011;61643;49.564;17.412;2023-06-22T11:48:29;12.50;;;9.82;;
73428;SDS011;61643;49.564;17.412;2023-06-22T11:50:55;12.00;;;9.75;;
73428;SDS011;61643;49.564;17.412;2023-06-22T11:53:23;11.40;;;8.77;;
73428;SDS011;61643;49.564;17.412;2023-06-22T11:55:50;13.40;;;8.75;;
73428;SDS011;61643;49.564;17.412;2023-06-22T11:58:16;13.18;;;8.98;;
73428;SDS011;61643;49.564;17.412;2023-06-22T12:00:42;11.68;;;9.23;;
73428;SDS011;61643;49.564;17.412;2023-06-22T12:03:08;10.43;;;8.45;;
73428;SDS011;61643;49.564;17.412;2023-06-22T12:05:35;9.65;;;8.10;;
73428;SDS011;61643;49.564;17.412;2023-06-22T12:08:01;10.65;;;8.27;;
73428;SDS011;61643;49.564;17.412;2023-06-22T12:10:27;12.90;;;8.80;;
73428;SDS011;61643;49.564;17.412;2023-06-22T12:12:56;11.18;;;8.80;;
73428;SDS011;61643;49.564;17.412;2023-06-22T12:15:23;10.82;;;8.60;;
73428;SDS011;61643;49.564;17.412;2023-06-22T12:17:49;10.73;;;8.35;;
73428;SDS011;61643;49.564;17.412;2023-06-22T12:20:15;10.85;;;8.35;;
73428;SDS011;61643;49.564;17.412;2023-06-22T12:22:41;10.07;;;8.55;;
73428;SDS011;61643;49.564;17.412;2023-06-22T12:25:07;10.93;;;7.97;;
73428;SDS011;61643;49.564;17.412;2023-06-22T12:27:34;9.88;;;7.70;;
73428;SDS011;61643;49.564;17.412;2023-06-22T12:30:01;10.77;;;7.25;;
73428;SDS011;61643;49.564;17.412;2023-06-22T12:32:27;9.63;;;7.95;;
73428;SDS011;61643;49.564;17.412;2023-06-22T12:34:53;9.55;;;7.90;;
73428;SDS011;61643;49.564;17.412;2023-06-22T12:37:19;11.95;;;8.18;;
73428;SDS011;61643;49.564;17.412;2023-06-22T12:39:45;8.90;;;7.65;;
73428;SDS011;61643;49.564;17.412;2023-06-22T12:42:11;10.52;;;8.30;;
73428;SDS011;61643;49.564;17.412;2023-06-22T12:44:37;10.00;;;7.95;;
73428;SDS011;61643;49.564;17.412;2023-06-22T12:47:05;10.50;;;8.18;;
73428;SDS011;61643;49.564;17.412;2023-06-22T12:49:31;9.10;;;7.72;;
73428;SDS011;61643;49.564;17.412;2023-06-22T12:51:57;10.30;;;7.43;;
73428;SDS011;61643;49.564;17.412;2023-06-22T12:54:23;10.02;;;7.90;;
73428;SDS011;61643;49.564;17.412;2023-06-22T12:56:52;11.90;;;7.57;;
73428;SDS011;61643;49.564;17.412;2023-06-22T12:59:18;9.13;;;7.20;;
73428;SDS011;61643;49.564;17.412;2023-06-22T13:01:44;11.93;;;7.82;;
73428;SDS011;61643;49.564;17.412;2023-06-22T13:04:11;8.65;;;7.65;;
73428;SDS011;61643;49.564;17.412;2023-06-22T13:06:40;9.50;;;7.60;;
73428;SDS011;61643;49.564;17.412;2023-06-22T13:09:13;10.45;;;7.88;;
73428;SDS011;61643;49.564;17.412;2023-06-22T13:11:40;9.77;;;7.93;;
73428;SDS011;61643;49.564;17.412;2023-06-22T13:14:07;10.32;;;7.72;;
73428;SDS011;61643;49.564;17.412;2023-06-22T13:16:33;12.15;;;7.72;;
73428;SDS011;61643;49.564;17.412;2023-06-22T13:18:59;8.93;;;7.10;;
73428;SDS011;61643;49.564;17.412;2023-06-22T13:21:25;8.27;;;7.32;;
73428;SDS011;61643;49.564;17.412;2023-06-22T13:23:51;11.38;;;7.50;;
73428;SDS011;61643;49.564;17.412;2023-06-22T13:26:17;11.32;;;8.27;;
73428;SDS011;61643;49.564;17.412;2023-06-22T13:28:43;10.05;;;7.63;;
73428;SDS011;61643;49.564;17.412;2023-06-22T13:31:09;9.00;;;7.20;;
73428;SDS011;61643;49.564;17.412;2023-06-22T13:33:37;9.48;;;7.38;;
73428;SDS011;61643;49.564;17.412;2023-06-22T13:36:03;11.38;;;7.43;;
73428;SDS011;61643;49.564;17.412;2023-06-22T13:38:31;9.77;;;8.02;;
73428;SDS011;61643;49.564;17.412;2023-06-22T13:40:57;10.13;;;7.25;;
73428;SDS011;61643;49.564;17.412;2023-06-22T13:43:26;7.50;;;6.70;;
73428;SDS011;61643;49.564;17.412;2023-06-22T13:45:52;8.63;;;6.72;;
73428;SDS011;61643;49.564;17.412;2023-06-22T13:48:18;10.52;;;7.43;;
73428;SDS011;61643;49.564;17.412;2023-06-22T13:50:44;9.25;;;6.88;;
73428;SDS011;61643;49.564;17.412;2023-06-22T13:53:10;11.27;;;6.65;;
73428;SDS011;61643;49.564;17.412;2023-06-22T13:55:36;8.85;;;6.93;;
73428;SDS011;61643;49.564;17.412;2023-06-22T13:58:02;7.47;;;6.68;;
73428;SDS011;61643;49.564;17.412;2023-06-22T14:00:28;10.70;;;7.25;;
73428;SDS011;61643;49.564;17.412;2023-06-22T14:02:54;9.70;;;6.05;;
73428;SDS011;61643;49.564;17.412;2023-06-22T14:05:20;7.10;;;5.65;;
73428;SDS011;61643;49.564;17.412;2023-06-22T14:07:46;7.45;;;6.03;;
73428;SDS011;61643;49.564;17.412;2023-06-22T14:10:12;7.40;;;6.30;;
73428;SDS011;61643;49.564;17.412;2023-06-22T14:12:38;9.05;;;6.80;;
73428;SDS011;61643;49.564;17.412;2023-06-22T14:15:04;9.63;;;7.07;;
73428;SDS011;61643;49.564;17.412;2023-06-22T14:17:30;7.50;;;6.70;;
73428;SDS011;61643;49.564;17.412;2023-06-22T14:19:56;8.75;;;6.65;;
73428;SDS011;61643;49.564;17.412;2023-06-22T14:22:22;11.45;;;7.38;;
73428;SDS011;61643;49.564;17.412;2023-06-22T14:24:48;9.57;;;7.65;;